createdAt,value
2023-03-20T00:02:26.391Z,64.60
2023-03-20T00:04:54.887Z,64.36
2023-03-20T00:07:22.927Z,64.76
2023-03-20T00:09:51.022Z,63.88
2023-03-20T00:12:26.036Z,64.42
2023-03-20T00:14:55.693Z,64.08
2023-03-20T00:17:23.868Z,64.28
2023-03-20T00:19:51.877Z,64.37
2023-03-20T00:22:19.883Z,64.19
2023-03-20T00:24:48.455Z,64.14
2023-03-20T00:27:18.708Z,64.16
2023-03-20T00:29:48.097Z,64.22
2023-03-20T00:32:18.156Z,63.98
2023-03-20T00:34:46.326Z,63.89
2023-03-20T00:37:14.719Z,64.06
2023-03-20T00:39:43.150Z,64.16
2023-03-20T00:42:21.017Z,63.88
2023-03-20T00:44:53.802Z,64.16
2023-03-20T00:47:27.148Z,64.11
2023-03-20T00:49:57.848Z,63.88
2023-03-20T00:52:26.367Z,63.59
2023-03-20T00:54:54.512Z,64.19
2023-03-20T00:57:26.461Z,64.10
2023-03-20T00:59:59.026Z,64.15
2023-03-20T01:02:31.060Z,63.78
2023-03-20T01:05:00.009Z,63.76
2023-03-20T01:07:28.702Z,63.87
2023-03-20T01:09:56.928Z,63.54
2023-03-20T01:12:25.270Z,64.02
2023-03-20T01:14:57.738Z,63.63
2023-03-20T01:17:29.362Z,63.78
2023-03-20T01:19:57.648Z,63.19
2023-03-20T01:22:25.923Z,63.47
2023-03-20T01:24:53.998Z,63.04
2023-03-20T01:27:22.305Z,63.25
2023-03-20T01:29:50.441Z,63.50
2023-03-20T01:32:20.674Z,63.33
2023-03-20T01:34:53.021Z,63.10
2023-03-20T01:37:26.153Z,63.04
2023-03-20T01:39:55.154Z,64.21
2023-03-20T01:42:23.290Z,64.08
2023-03-20T01:44:51.727Z,64.53
2023-03-20T01:47:24.415Z,64.77
2023-03-20T01:50:26.594Z,64.51
2023-03-20T01:53:08.881Z,65.02
2023-03-20T01:55:42.840Z,65.34
2023-03-20T01:58:17.799Z,64.90
2023-03-20T02:00:48.901Z,65.12
2023-03-20T02:03:21.152Z,64.90
2023-03-20T02:06:17.999Z,65.33
2023-03-20T02:09:03.275Z,65.11
2023-03-20T02:11:39.010Z,65.32
2023-03-20T02:14:07.680Z,65.44
2023-03-20T02:16:48.190Z,65.66
2023-03-20T02:19:58.384Z,66.37
2023-03-20T02:23:29.318Z,65.88
2023-03-20T02:26:23.128Z,66.06
2023-03-20T02:29:39.821Z,65.91
2023-03-20T02:33:04.726Z,65.76
2023-03-20T02:36:36.167Z,66.27
2023-03-20T02:39:25.317Z,65.77
2023-03-20T02:42:03.414Z,66.26
2023-03-20T02:44:41.179Z,65.85
2023-03-20T02:47:14.606Z,66.17
2023-03-20T02:49:57.022Z,66.23
2023-03-20T02:52:37.096Z,65.86
2023-03-20T02:55:18.181Z,65.91
2023-03-20T02:57:59.341Z,65.98
2023-03-20T03:00:33.514Z,66.14
2023-03-20T03:03:10.993Z,65.56
2023-03-20T03:05:49.114Z,65.64
2023-03-20T03:08:22.359Z,66.03
2023-03-20T03:10:58.553Z,66.59
2023-03-20T03:13:30.985Z,66.06
2023-03-20T03:16:05.635Z,66.48
2023-03-20T03:18:36.373Z,66.10
2023-03-20T03:21:08.298Z,66.50
2023-03-20T03:23:44.594Z,65.75
2023-03-20T03:26:20.661Z,66.20
2023-03-20T03:28:53.752Z,66.02
2023-03-20T03:31:23.103Z,66.33
2023-03-20T03:33:55.718Z,66.14
2023-03-20T03:36:39.511Z,66.35
2023-03-20T03:39:18.760Z,66.04
2023-03-20T03:41:53.760Z,66.63
2023-03-20T03:44:29.262Z,66.35
2023-03-20T03:47:04.110Z,66.46
2023-03-20T03:49:37.447Z,66.13
2023-03-20T03:52:11.420Z,66.25
2023-03-20T03:54:44.545Z,66.21
2023-03-20T03:57:47.216Z,66.20
2023-03-20T04:00:22.267Z,66.47
2023-03-20T04:02:55.889Z,66.81
2023-03-20T04:05:29.542Z,66.78
2023-03-20T04:08:02.245Z,66.84
2023-03-20T04:10:30.382Z,66.64
2023-03-20T04:12:59.785Z,66.86
2023-03-20T04:15:28.332Z,67.04
2023-03-20T04:17:56.832Z,66.82
2023-03-20T04:20:26.315Z,66.60
2023-03-20T04:22:54.645Z,66.55
2023-03-20T04:25:25.952Z,66.58
2023-03-20T04:27:56.330Z,66.13
2023-03-20T04:30:38.868Z,66.70
2023-03-20T04:33:23.852Z,66.71
2023-03-20T04:36:01.426Z,66.46
2023-03-20T04:38:29.630Z,67.03
2023-03-20T04:40:57.808Z,67.00
2023-03-20T04:43:26.107Z,66.82
2023-03-20T04:45:55.756Z,66.31
2023-03-20T04:48:24.295Z,66.52
2023-03-20T04:50:52.686Z,66.97
2023-03-20T04:53:27.283Z,66.94
2023-03-20T04:55:56.166Z,66.82
2023-03-20T04:58:24.635Z,67.21
2023-03-20T05:00:52.782Z,66.80
2023-03-20T05:03:24.043Z,67.50
2023-03-20T05:05:52.478Z,67.43
2023-03-20T05:08:21.156Z,66.96
2023-03-20T05:10:49.590Z,67.49
2023-03-20T05:13:36.437Z,67.96
2023-03-20T05:16:23.142Z,67.63
2023-03-20T05:19:12.468Z,67.67
2023-03-20T05:22:01.471Z,67.28
2023-03-20T05:24:49.834Z,67.44
2023-03-20T05:27:27.034Z,67.85
2023-03-20T05:30:15.687Z,68.01
2023-03-20T05:33:04.227Z,67.64
2023-03-20T05:35:40.216Z,67.03
2023-03-20T05:38:22.683Z,67.68
2023-03-20T05:41:20.047Z,67.11
2023-03-20T05:44:13.538Z,66.71
2023-03-20T05:46:59.219Z,67.46
2023-03-20T05:49:47.813Z,67.89
2023-03-20T05:52:38.854Z,66.91
2023-03-20T05:55:25.759Z,67.66
2023-03-20T05:58:13.640Z,68.02
2023-03-20T06:01:00.159Z,67.27
2023-03-20T06:03:47.285Z,67.63
2023-03-20T06:06:19.020Z,67.60
2023-03-20T06:08:52.127Z,67.61
2023-03-20T06:11:21.234Z,67.62
2023-03-20T06:13:51.134Z,67.65
2023-03-20T06:16:19.976Z,67.29
2023-03-20T06:18:50.497Z,66.90
2023-03-20T06:21:18.590Z,66.82
2023-03-20T06:23:46.811Z,67.31
2023-03-20T06:26:16.576Z,66.74
2023-03-20T06:28:58.171Z,66.47
2023-03-20T06:31:26.609Z,66.87
2023-03-20T06:33:54.814Z,66.84
2023-03-20T06:36:23.480Z,66.37
2023-03-20T06:38:57.558Z,66.41
2023-03-20T06:41:34.530Z,66.27
2023-03-20T06:44:06.990Z,66.51
2023-03-20T06:47:04.603Z,66.83
2023-03-20T06:49:32.923Z,66.59
2023-03-20T06:52:01.109Z,66.30
2023-03-20T06:54:29.252Z,66.32
2023-03-20T06:57:00.266Z,66.24
2023-03-20T06:59:28.456Z,67.16
2023-03-20T07:01:58.719Z,66.45
2023-03-20T07:04:27.780Z,66.74
2023-03-20T07:06:59.632Z,66.88
2023-03-20T07:09:28.069Z,66.60
2023-03-20T07:11:57.243Z,66.33
2023-03-20T07:14:26.880Z,66.48
2023-03-20T07:16:58.863Z,66.77
2023-03-20T07:19:27.839Z,66.76
2023-03-20T07:22:03.538Z,66.76
2023-03-20T07:24:38.128Z,66.20
2023-03-20T07:27:31.208Z,65.77
2023-03-20T07:30:00.999Z,66.58
2023-03-20T07:32:30.515Z,66.14
2023-03-20T07:34:59.179Z,66.97
2023-03-20T07:37:28.528Z,66.40
2023-03-20T07:40:03.436Z,66.46
2023-03-20T07:42:33.848Z,65.90
2023-03-20T07:45:18.550Z,65.53
2023-03-20T07:47:48.315Z,64.78
2023-03-20T07:50:17.873Z,64.45
2023-03-20T07:52:48.535Z,65.25
2023-03-20T07:55:18.591Z,64.77
2023-03-20T07:57:49.238Z,64.57
2023-03-20T08:00:21.476Z,64.62
2023-03-20T08:02:49.997Z,64.66
2023-03-20T08:05:19.046Z,64.94
2023-03-20T08:07:47.224Z,64.54
2023-03-20T08:10:15.631Z,63.71
2023-03-20T08:12:43.988Z,62.93
2023-03-20T08:15:13.224Z,63.47
2023-03-20T08:17:45.418Z,62.96
2023-03-20T08:20:16.356Z,63.33
2023-03-20T08:22:46.747Z,63.34
2023-03-20T08:25:14.827Z,63.52
2023-03-20T08:27:44.201Z,63.07
2023-03-20T08:30:14.039Z,63.26
2023-03-20T08:32:42.656Z,62.95
2023-03-20T08:35:32.195Z,63.21
2023-03-20T08:38:01.648Z,62.81
2023-03-20T08:40:33.053Z,62.78
2023-03-20T08:43:01.139Z,62.84
2023-03-20T08:45:29.387Z,62.42
2023-03-20T08:47:58.657Z,62.49
2023-03-20T08:50:28.257Z,62.07
2023-03-20T08:52:56.816Z,61.92
2023-03-20T08:55:25.195Z,61.54
2023-03-20T08:57:54.468Z,61.94
2023-03-20T09:00:24.113Z,61.73
2023-03-20T09:02:52.556Z,61.75
2023-03-20T09:05:20.975Z,61.41
2023-03-20T09:07:51.379Z,60.75
2023-03-20T09:10:19.872Z,61.09
2023-03-20T09:12:47.916Z,61.83
2023-03-20T09:15:16.061Z,61.36
2023-03-20T09:17:44.172Z,61.16
2023-03-20T09:20:13.020Z,60.75
2023-03-20T09:22:43.817Z,59.97
2023-03-20T09:25:14.275Z,59.24
2023-03-20T09:27:42.973Z,59.18
2023-03-20T09:30:12.671Z,59.28
2023-03-20T09:32:41.143Z,59.94
2023-03-20T09:35:10.247Z,60.31
2023-03-20T09:37:38.354Z,59.78
2023-03-20T09:40:09.816Z,59.30
2023-03-20T09:42:51.531Z,58.90
2023-03-20T09:45:35.526Z,59.38
2023-03-20T09:48:11.249Z,58.82
2023-03-20T09:50:47.669Z,58.14
2023-03-20T09:53:24.550Z,58.73
2023-03-20T09:55:55.944Z,59.41
2023-03-20T09:58:30.957Z,59.15
2023-03-20T10:04:09.113Z,59.08
2023-03-20T10:06:38.764Z,58.76
2023-03-20T10:09:41.930Z,58.27
2023-03-20T10:12:40.349Z,58.37
2023-03-20T10:15:22.708Z,58.39
2023-03-20T10:18:01.868Z,58.40
2023-03-20T10:20:35.698Z,58.25
2023-03-20T10:23:16.267Z,57.88
2023-03-20T10:25:52.404Z,57.85
2023-03-20T10:28:29.639Z,57.64
2023-03-20T10:31:17.897Z,57.62
2023-03-20T10:34:02.576Z,58.08
2023-03-20T10:37:03.885Z,58.55
2023-03-20T10:39:50.407Z,58.17
2023-03-20T10:42:24.553Z,58.55
2023-03-20T10:44:59.620Z,57.59
2023-03-20T10:47:34.314Z,58.06
2023-03-20T10:50:07.516Z,57.98
2023-03-20T10:52:41.227Z,58.38
2023-03-20T10:55:14.186Z,57.90
2023-03-20T10:57:48.829Z,58.18
2023-03-20T11:00:22.435Z,58.22
2023-03-20T11:02:51.948Z,57.95
2023-03-20T11:05:30.377Z,58.04
2023-03-20T11:08:05.276Z,57.86
2023-03-20T11:10:35.563Z,58.08
2023-03-20T11:13:23.705Z,58.33
2023-03-20T11:15:54.627Z,58.09
2023-03-20T11:18:27.062Z,58.11
2023-03-20T11:20:58.339Z,58.17
2023-03-20T11:23:30.414Z,58.15
2023-03-20T11:26:02.035Z,58.49
2023-03-20T11:28:35.068Z,57.65
2023-03-20T11:31:08.339Z,57.31
2023-03-20T11:33:42.388Z,59.06
2023-03-20T11:36:26.610Z,57.59
2023-03-20T11:39:06.615Z,56.39
2023-03-20T11:41:35.495Z,56.24
2023-03-20T11:44:03.501Z,56.10
2023-03-20T11:46:31.889Z,56.09
2023-03-20T11:49:08.956Z,55.94
2023-03-20T11:51:38.693Z,55.97
2023-03-20T11:54:16.879Z,56.53
2023-03-20T11:56:54.541Z,55.55
2023-03-20T11:59:23.516Z,55.58
2023-03-20T12:02:45.775Z,55.25
2023-03-20T12:05:56.459Z,54.97
2023-03-20T12:12:20.130Z,56.04
2023-03-20T12:14:59.123Z,55.57
2023-03-20T12:17:47.120Z,55.56
2023-03-20T12:20:31.576Z,55.89
2023-03-20T12:23:12.141Z,55.67
2023-03-20T12:25:49.052Z,55.70
2023-03-20T12:28:24.953Z,56.21
2023-03-20T12:31:07.230Z,55.45
2023-03-20T12:33:44.067Z,55.32
2023-03-20T12:36:19.369Z,55.70
2023-03-20T12:38:47.857Z,56.75
2023-03-20T12:41:25.854Z,55.64
2023-03-20T12:44:31.704Z,56.18
2023-03-20T12:47:16.229Z,55.27
2023-03-20T12:49:57.917Z,54.93
2023-03-20T12:52:41.095Z,54.42
2023-03-20T12:55:26.814Z,54.33
2023-03-20T12:58:07.859Z,54.84
2023-03-20T13:00:41.424Z,54.57
2023-03-20T13:03:41.810Z,53.78
2023-03-20T13:06:21.001Z,53.67
2023-03-20T13:09:23.253Z,54.15
2023-03-20T13:12:00.582Z,54.81
2023-03-20T13:14:41.725Z,54.75
2023-03-20T13:17:19.780Z,54.65
2023-03-20T13:20:07.454Z,54.52
2023-03-20T13:22:54.353Z,54.14
2023-03-20T13:25:45.447Z,54.09
2023-03-20T13:28:23.320Z,53.92
2023-03-20T13:31:00.669Z,54.42
2023-03-20T13:33:44.415Z,53.27
2023-03-20T13:36:25.475Z,54.01
2023-03-20T13:39:00.595Z,53.58
2023-03-20T13:41:30.847Z,53.81
2023-03-20T13:44:03.479Z,53.08
2023-03-20T13:46:39.400Z,53.02
2023-03-20T13:49:17.127Z,52.16
2023-03-20T13:51:54.853Z,51.70
2023-03-20T13:54:47.594Z,52.05
2023-03-20T13:57:35.967Z,51.14
2023-03-20T14:00:18.484Z,50.38
2023-03-20T14:03:07.931Z,50.91
2023-03-20T14:05:43.951Z,50.59
2023-03-20T14:08:34.272Z,50.03
2023-03-20T14:11:32.621Z,49.89
2023-03-20T14:14:13.713Z,50.11
2023-03-20T14:16:42.905Z,50.82
2023-03-20T14:19:20.815Z,49.25
2023-03-20T14:21:52.167Z,49.97
2023-03-20T14:24:21.941Z,50.34
2023-03-20T14:26:53.785Z,50.12
2023-03-20T14:29:36.059Z,49.59
2023-03-20T14:32:22.156Z,50.00
2023-03-20T14:34:53.700Z,49.15
2023-03-20T14:37:46.605Z,49.20
2023-03-20T14:40:20.654Z,49.44
2023-03-20T14:42:56.702Z,49.39
2023-03-20T14:45:44.068Z,49.68
2023-03-20T14:48:30.006Z,49.35
2023-03-20T14:51:25.487Z,49.12
2023-03-20T14:53:57.866Z,49.29
2023-03-20T14:56:32.652Z,49.54
2023-03-20T14:59:06.071Z,50.52
2023-03-20T15:01:49.779Z,50.14
2023-03-20T15:04:33.739Z,49.81
2023-03-20T15:07:07.169Z,50.24
2023-03-20T15:09:43.050Z,49.97
2023-03-20T15:12:14.167Z,50.50
2023-03-20T15:14:48.528Z,50.53
2023-03-20T15:17:24.308Z,50.41
2023-03-20T15:19:59.601Z,50.27
2023-03-20T15:22:27.845Z,50.49
2023-03-20T15:24:58.161Z,50.72
2023-03-20T15:27:30.426Z,50.41
2023-03-20T15:30:01.356Z,51.08
2023-03-20T15:32:31.200Z,51.24
2023-03-20T15:34:59.579Z,51.51
2023-03-20T15:37:29.463Z,51.24
2023-03-20T15:39:59.708Z,51.33
2023-03-20T15:42:28.382Z,51.22
2023-03-20T15:44:57.633Z,51.47
2023-03-20T15:47:27.230Z,51.25
2023-03-20T15:49:58.603Z,51.51
2023-03-20T15:52:33.134Z,51.33
2023-03-20T15:55:10.543Z,51.44
2023-03-20T15:57:44.839Z,51.10
2023-03-20T16:00:21.714Z,51.07
2023-03-20T16:02:51.268Z,51.00
2023-03-20T16:05:24.600Z,50.58
2023-03-20T16:07:52.874Z,51.06
2023-03-20T16:10:26.692Z,51.10
2023-03-20T16:12:55.529Z,51.35
2023-03-20T16:15:27.567Z,51.07
2023-03-20T16:17:59.174Z,50.51
2023-03-20T16:20:34.373Z,51.15
2023-03-20T16:23:07.039Z,51.40
2023-03-20T16:25:36.584Z,51.50
2023-03-20T16:28:07.061Z,52.56
2023-03-20T16:30:37.130Z,51.68
2023-03-20T16:33:11.026Z,51.36
2023-03-20T16:35:46.255Z,51.05
2023-03-20T16:38:24.724Z,51.31
2023-03-20T16:40:58.364Z,51.07
2023-03-20T16:43:32.777Z,51.46
2023-03-20T16:46:07.059Z,51.31
2023-03-20T16:48:37.720Z,51.71
2023-03-20T16:51:18.810Z,51.62
2023-03-20T16:53:49.463Z,52.15
2023-03-20T16:56:25.562Z,52.04
2023-03-20T16:58:56.610Z,51.88
2023-03-20T17:01:28.546Z,52.38
2023-03-20T17:03:59.668Z,53.06
2023-03-20T17:06:45.501Z,52.62
2023-03-20T17:09:27.039Z,52.29
2023-03-20T17:12:03.609Z,52.46
2023-03-20T17:14:32.147Z,52.68
2023-03-20T17:17:00.317Z,52.51
2023-03-20T17:19:28.408Z,52.93
2023-03-20T17:21:59.703Z,52.95
2023-03-20T17:24:27.851Z,53.32
2023-03-20T17:26:57.576Z,53.23
2023-03-20T17:29:25.984Z,53.44
2023-03-20T17:31:54.207Z,53.31
2023-03-20T17:34:22.443Z,53.37
2023-03-20T17:36:50.804Z,53.63
2023-03-20T17:39:22.466Z,53.87
2023-03-20T17:41:51.678Z,54.10
2023-03-20T17:44:19.825Z,54.19
2023-03-20T17:46:57.651Z,54.46
2023-03-20T17:49:28.192Z,54.60
2023-03-20T17:51:57.060Z,54.67
2023-03-20T17:54:26.802Z,54.32
2023-03-20T17:56:54.894Z,54.53
2023-03-20T17:59:24.854Z,54.54
2023-03-20T18:01:53.078Z,54.46
2023-03-20T18:04:21.483Z,54.42
2023-03-20T18:06:49.915Z,54.61
2023-03-20T18:09:18.092Z,54.75
2023-03-20T18:11:47.980Z,54.48
2023-03-20T18:14:19.011Z,54.52
2023-03-20T18:16:47.585Z,54.44
2023-03-20T18:19:24.508Z,54.42
2023-03-20T18:21:52.815Z,54.82
2023-03-20T18:24:21.061Z,54.80
2023-03-20T18:26:51.209Z,54.74
2023-03-20T18:29:19.583Z,54.87
2023-03-20T18:31:48.968Z,54.98
2023-03-20T18:34:17.387Z,54.81
2023-03-20T18:36:46.966Z,55.38
2023-03-20T18:39:19.041Z,55.20
2023-03-20T18:41:47.448Z,55.50
2023-03-20T18:44:16.863Z,55.75
2023-03-20T18:46:45.280Z,55.45
2023-03-20T18:49:16.980Z,55.34
2023-03-20T18:51:46.634Z,55.88
2023-03-20T18:54:14.836Z,55.71
2023-03-20T18:56:43.212Z,56.13
2023-03-20T18:59:13.770Z,56.03
2023-03-20T19:01:43.857Z,55.87
2023-03-20T19:04:12.201Z,56.11
2023-03-20T19:06:40.883Z,56.07
2023-03-20T19:09:12.923Z,55.91
2023-03-20T19:11:41.018Z,55.94
2023-03-20T19:14:11.226Z,56.23
2023-03-20T19:16:39.351Z,56.25
2023-03-20T19:19:14.724Z,55.95
2023-03-20T19:21:43.103Z,56.30
2023-03-20T19:24:12.692Z,56.42
2023-03-20T19:26:41.963Z,56.46
2023-03-20T19:29:14.162Z,56.38
2023-03-20T19:31:42.326Z,56.36
2023-03-20T19:34:44.550Z,56.41
2023-03-20T19:37:01.905Z,56.76
2023-03-20T19:39:30.570Z,56.47
2023-03-20T19:42:15.325Z,56.49
2023-03-20T19:44:46.572Z,56.71
2023-03-20T19:47:14.724Z,56.52
2023-03-20T19:49:44.369Z,56.29
2023-03-20T19:52:28.025Z,56.16
2023-03-20T19:55:03.072Z,55.84
2023-03-20T19:57:58.016Z,55.88
2023-03-20T20:00:56.283Z,56.36
2023-03-20T20:03:20.815Z,56.24
2023-03-20T20:05:51.866Z,55.93
2023-03-20T20:08:30.830Z,56.23
2023-03-20T20:11:07.595Z,56.29
2023-03-20T20:13:47.048Z,56.67
2023-03-20T20:16:24.389Z,56.45
2023-03-20T20:18:52.529Z,56.49
2023-03-20T20:22:13.205Z,56.31
2023-03-20T20:24:10.301Z,56.99
2023-03-20T20:26:41.170Z,56.70
2023-03-20T20:29:16.427Z,56.99
2023-03-20T20:31:45.431Z,57.28
2023-03-20T20:39:52.211Z,57.94
2023-03-20T20:42:20.896Z,58.10
2023-03-20T20:44:49.159Z,57.71
2023-03-20T20:47:18.052Z,57.46
2023-03-20T20:49:47.931Z,57.62
2023-03-20T20:52:18.457Z,58.08
2023-03-20T20:54:46.588Z,57.60
2023-03-20T20:57:15.568Z,57.33
2023-03-20T20:59:43.948Z,57.29
2023-03-20T21:02:15.833Z,57.28
2023-03-20T21:04:44.827Z,57.15
2023-03-20T21:07:14.047Z,56.87
2023-03-20T21:09:44.460Z,57.19
2023-03-20T21:12:22.820Z,57.47
2023-03-20T21:14:58.893Z,57.41
2023-03-20T21:17:27.899Z,58.00
2023-03-20T21:19:56.639Z,58.09
2023-03-20T21:22:25.765Z,57.88
2023-03-20T21:25:13.130Z,57.49
2023-03-20T21:27:42.264Z,57.62
2023-03-20T21:30:12.481Z,57.90
2023-03-20T21:32:41.034Z,57.96
2023-03-20T21:35:09.772Z,58.07
2023-03-20T21:40:28.036Z,57.88
2023-03-20T21:42:58.465Z,57.91
2023-03-20T21:46:13.772Z,57.85
2023-03-20T21:49:06.904Z,58.14
2023-03-20T21:52:29.057Z,58.72
2023-03-20T21:58:21.283Z,58.89
2023-03-20T22:01:08.415Z,58.86
2023-03-20T22:03:11.486Z,58.62
2023-03-20T22:06:22.020Z,58.60
2023-03-20T22:09:45.201Z,58.69
2023-03-20T22:12:01.577Z,58.92
2023-03-20T22:26:25.226Z,59.61
2023-03-20T22:28:58.974Z,59.35
2023-03-20T22:37:30.473Z,59.33
2023-03-20T22:45:11.813Z,59.68
2023-03-20T22:47:41.573Z,59.84
2023-03-20T22:50:11.473Z,59.47
2023-03-20T22:52:48.656Z,59.74
2023-03-20T22:55:18.253Z,59.40
2023-03-20T22:57:59.983Z,59.59
2023-03-20T23:00:37.413Z,60.58
2023-03-20T23:03:39.812Z,59.72
2023-03-20T23:05:56.422Z,59.83
2023-03-20T23:08:25.383Z,59.62
2023-03-20T23:10:53.532Z,60.00
2023-03-20T23:13:22.388Z,59.73
2023-03-20T23:15:51.549Z,58.63
2023-03-20T23:18:21.119Z,58.45
2023-03-20T23:20:49.405Z,58.68
2023-03-20T23:23:17.754Z,59.04
2023-03-20T23:25:46.271Z,58.41
2023-03-20T23:28:16.204Z,58.96
2023-03-20T23:30:51.834Z,59.07
2023-03-20T23:33:29.152Z,59.70
2023-03-20T23:36:10.911Z,59.59
2023-03-20T23:38:42.844Z,59.71
2023-03-20T23:41:13.013Z,60.27
2023-03-20T23:43:42.095Z,59.87
2023-03-20T23:46:11.465Z,60.24
2023-03-20T23:48:41.010Z,59.93
2023-03-20T23:51:09.844Z,60.08
2023-03-20T23:53:37.989Z,59.81
2023-03-20T23:56:08.319Z,59.50
2023-03-20T23:58:41.870Z,59.64
